Time;durP1;ratioP1;P1;durP2;ratioP2;P2;SDS_P1;SDS_P2;PMS_P1;PMS_P2;Temp;Humidity;BMP_temperature;BMP_pressure;BME280_temperature;BME280_humidity;BME280_pressure;Samples;Min_cycle;Max_cycle;Signal;HPM_P1;HPM_P2
2021/05/19 00:06:28;;;;;;;5.15;3.75;;;9.00;99.90;;;;;;6687699;88;20182;-76
2021/05/19 00:16:29;;;;;;;5.57;4.15;;;9.00;99.90;;;;;;6685684;88;20728;-76
2021/05/19 00:26:30;;;;;;;6.87;4.50;;;9.10;99.90;;;;;;6689586;88;20618;-76
2021/05/19 00:36:30;;;;;;;6.10;4.97;;;9.00;99.90;;;;;;6685833;88;20233;-76
2021/05/19 00:46:32;;;;;;;8.60;5.87;;;9.20;99.90;;;;;;6690640;88;20514;-77
2021/05/19 00:56:33;;;;;;;8.75;6.22;;;9.10;99.90;;;;;;6681717;88;20967;-76
2021/05/19 01:06:56;;;;;;;9.65;6.45;;;9.10;99.90;;;;;;6684873;88;20655;-76
2021/05/19 01:16:56;;;;;;;8.98;6.37;;;9.30;99.90;;;;;;6686164;88;20247;-77
2021/05/19 01:26:57;;;;;;;12.40;7.43;;;9.20;99.90;;;;;;6685122;88;20191;-77
2021/05/19 01:36:58;;;;;;;11.10;8.10;;;9.10;99.90;;;;;;6685844;88;20257;-76
2021/05/19 01:46:58;;;;;;;12.32;8.02;;;9.10;99.90;;;;;;6685246;88;20272;-77
2021/05/19 01:57:00;;;;;;;12.30;7.90;;;9.10;99.90;;;;;;6685185;88;20194;-76
2021/05/19 02:07:01;;;;;;;12.07;8.00;;;9.00;99.90;;;;;;6667869;89;20297;-77
2021/05/19 02:17:02;;;;;;;12.98;8.95;;;9.10;99.90;;;;;;6668646;89;20235;-77
2021/05/19 02:27:02;;;;;;;11.73;8.80;;;9.00;99.90;;;;;;6667817;89;20713;-76
2021/05/19 02:37:03;;;;;;;12.20;8.52;;;9.00;99.90;;;;;;6666473;89;20357;-77
2021/05/19 02:47:04;;;;;;;12.00;8.00;;;9.10;99.90;;;;;;6680489;88;20203;-76
2021/05/19 02:57:05;;;;;;;10.25;7.80;;;9.10;99.90;;;;;;6685294;88;20205;-77
2021/05/19 03:07:06;;;;;;;10.32;7.60;;;9.10;99.90;;;;;;6684960;88;20206;-76
2021/05/19 03:17:06;;;;;;;9.40;7.32;;;9.00;99.90;;;;;;6683885;88;20258;-77
2021/05/19 03:27:07;;;;;;;10.07;7.05;;;8.90;99.90;;;;;;6683945;88;20686;-77
2021/05/19 03:37:08;;;;;;;8.15;6.43;;;8.90;99.90;;;;;;6683016;88;20186;-77
2021/05/19 03:47:09;;;;;;;10.80;7.17;;;8.80;99.90;;;;;;6684820;88;20283;-77
2021/05/19 03:57:11;;;;;;;11.02;7.20;;;8.80;99.90;;;;;;6687616;88;20493;-77
2021/05/19 04:07:12;;;;;;;12.93;8.73;;;8.70;99.90;;;;;;6687163;88;20353;-77
2021/05/19 04:17:12;;;;;;;12.07;8.18;;;8.80;99.90;;;;;;6685466;88;20174;-76
2021/05/19 04:27:13;;;;;;;10.55;7.50;;;8.60;99.90;;;;;;6685782;88;20186;-77
2021/05/19 04:37:13;;;;;;;10.88;7.72;;;8.60;99.90;;;;;;6685561;88;20278;-77
2021/05/19 04:47:14;;;;;;;11.75;7.95;;;8.60;99.90;;;;;;6686243;88;20274;-76
2021/05/19 04:57:15;;;;;;;11.93;8.48;;;8.50;99.90;;;;;;6685610;88;20233;-76
2021/05/19 05:07:16;;;;;;;12.15;8.02;;;8.60;99.90;;;;;;6689356;88;20210;-76
2021/05/19 05:17:16;;;;;;;11.00;7.30;;;8.80;99.90;;;;;;6685795;88;20570;-76
2021/05/19 05:27:17;;;;;;;13.55;7.62;;;9.00;99.90;;;;;;6685566;88;20745;-77
2021/05/19 05:37:18;;;;;;;9.80;6.20;;;9.30;99.90;;;;;;6685244;88;20293;-76
2021/05/19 05:47:19;;;;;;;7.00;4.72;;;9.60;99.90;;;;;;6684500;88;20195;-77
2021/05/19 05:57:20;;;;;;;6.07;4.55;;;9.70;99.90;;;;;;6684550;88;20220;-77
2021/05/19 06:07:20;;;;;;;7.03;4.37;;;10.00;99.90;;;;;;6684039;88;20183;-75
2021/05/19 06:17:21;;;;;;;7.10;4.50;;;10.50;99.90;;;;;;6683755;88;20666;-77
2021/05/19 06:27:21;;;;;;;6.37;3.90;;;10.50;99.90;;;;;;6684539;88;20206;-77
2021/05/19 06:37:22;;;;;;;7.22;4.43;;;10.60;99.90;;;;;;6683826;88;20226;-77
2021/05/19 06:47:23;;;;;;;5.72;4.12;;;10.90;99.90;;;;;;6684196;88;20258;-76
2021/05/19 06:57:23;;;;;;;7.45;4.12;;;11.40;99.90;;;;;;6690786;88;20190;-76
2021/05/19 07:07:24;;;;;;;6.03;3.80;;;11.90;99.90;;;;;;6687040;88;20179;-76
2021/05/19 07:17:24;;;;;;;6.28;3.22;;;12.50;99.90;;;;;;6686581;88;20204;-76
2021/05/19 07:27:25;;;;;;;7.37;3.10;;;13.10;99.90;;;;;;6689632;88;20257;-77
2021/05/19 07:37:26;;;;;;;8.55;2.80;;;14.30;99.90;;;;;;6690315;88;20726;-78
2021/05/19 07:47:27;;;;;;;7.82;2.85;;;14.20;99.90;;;;;;6689410;89;20194;-76
2021/05/19 07:57:41;;;;;;;6.22;2.50;;;15.10;99.90;;;;;;6687898;88;20212;-77
2021/05/19 08:07:41;;;;;;;5.35;2.22;;;15.80;99.90;;;;;;6672754;88;20233;-76
2021/05/19 08:17:42;;;;;;;4.05;1.50;;;16.10;99.90;;;;;;6687568;88;21209;-77
2021/05/19 08:27:42;;;;;;;4.03;1.55;;;15.00;99.90;;;;;;6687477;88;20258;-78
2021/05/19 08:37:43;;;;;;;3.35;0.73;;;15.70;99.90;;;;;;6689907;88;20299;-77
2021/05/19 08:47:45;;;;;;;2.33;0.80;;;15.80;99.90;;;;;;6690046;88;20220;-78
2021/05/19 08:57:47;;;;;;;3.20;0.80;;;16.00;99.90;;;;;;6690046;88;20255;-78
2021/05/19 09:07:47;;;;;;;3.53;0.98;;;15.50;99.90;;;;;;6691314;88;20207;-77
2021/05/19 09:17:55;;;;;;;3.50;1.00;;;15.80;99.90;;;;;;6690564;88;20206;-77
2021/05/19 09:27:58;;;;;;;2.40;0.70;;;16.30;99.90;;;;;;6691084;88;20653;-77
2021/05/19 09:37:59;;;;;;;2.47;0.62;;;16.00;99.50;;;;;;6682121;88;20822;-77
2021/05/19 09:48:00;;;;;;;2.17;0.55;;;16.80;99.90;;;;;;6689422;88;20236;-79
2021/05/19 09:58:01;;;;;;;3.62;0.68;;;16.70;99.50;;;;;;6673579;89;20629;-78
2021/05/19 10:08:01;;;;;;;3.93;1.10;;;15.80;99.90;;;;;;6672615;88;20224;-78
2021/05/19 10:18:08;;;;;;;1.33;0.43;;;17.30;99.90;;;;;;6685367;88;20504;-78
2021/05/19 10:28:10;;;;;;;4.43;0.60;;;19.90;94.50;;;;;;6690058;88;20205;-77
2021/05/19 10:38:27;;;;;;;3.10;0.80;;;19.50;91.30;;;;;;6690904;88;20192;-78
2021/05/19 10:48:35;;;;;;;4.15;0.93;;;21.50;82.10;;;;;;6672733;89;20256;-78
2021/05/19 10:58:43;;;;;;;3.42;0.80;;;21.30;85.00;;;;;;6672521;89;20266;-76
2021/05/19 11:08:44;;;;;;;4.62;0.70;;;19.70;86.00;;;;;;6673459;89;20667;-79
2021/05/19 11:18:59;;;;;;;1.12;0.30;;;17.80;96.50;;;;;;6672497;89;20220;-78
2021/05/19 11:29:00;;;;;;;0.60;0.22;;;15.30;99.90;;;;;;6674611;89;20175;-77
2021/05/19 11:39:19;;;;;;;1.50;0.30;;;16.20;99.90;;;;;;6674094;89;20756;-77
2021/05/19 11:49:19;;;;;;;1.48;0.40;;;17.60;99.20;;;;;;6672723;88;20286;-79
2021/05/19 11:59:24;;;;;;;1.50;0.50;;;18.80;95.60;;;;;;6672367;89;20229;-78
2021/05/19 12:09:35;;;;;;;1.60;0.40;;;18.10;96.40;;;;;;6672534;89;20187;-78
2021/05/19 12:19:38;;;;;;;1.10;0.40;;;18.30;95.40;;;;;;6673672;89;20616;-78
2021/05/19 12:29:42;;;;;;;1.15;0.70;;;19.30;90.20;;;;;;6673884;89;20195;-78
2021/05/19 12:39:44;;;;;;;0.63;0.30;;;19.10;89.70;;;;;;6673218;89;20261;-78
2021/05/19 12:49:57;;;;;;;3.00;0.50;;;18.80;87.00;;;;;;6672886;89;20223;-78
2021/05/19 12:59:58;;;;;;;1.95;0.40;;;18.50;90.00;;;;;;6675622;89;20283;-78
2021/05/19 13:10:41;;;;;;;0.80;0.30;;;18.30;91.20;;;;;;6671069;89;20191;-78
2021/05/19 13:20:55;;;;;;;1.80;0.30;;;17.60;93.40;;;;;;6669437;89;20324;-78
2021/05/19 13:30:55;;;;;;;1.42;0.50;;;17.00;93.00;;;;;;6690749;88;20149;-78
2021/05/19 13:40:56;;;;;;;1.40;0.40;;;17.50;91.40;;;;;;6689974;88;20202;-77
2021/05/19 13:50:57;;;;;;;1.87;0.30;;;17.30;90.30;;;;;;6697683;88;20248;-78
2021/05/19 14:00:59;;;;;;;0.88;0.40;;;17.80;91.20;;;;;;6691833;88;20204;-78
2021/05/19 14:11:12;;;;;;;0.57;0.20;;;17.80;92.00;;;;;;6690942;88;20191;-78
2021/05/19 14:31:32;;;;;;;2.05;0.30;;;17.00;92.50;;;;;;6696422;88;20261;-80
2021/05/19 15:02:31;;;;;;;0.90;0.37;;;17.80;90.90;;;;;;6668718;88;20291;-79
2021/05/19 15:12:31;;;;;;;0.85;0.32;;;17.00;94.80;;;;;;6690497;88;20190;-78
2021/05/19 15:22:33;;;;;;;1.37;0.50;;;16.60;97.70;;;;;;6698817;88;20235;-82
2021/05/19 15:32:33;;;;;;;1.65;0.50;;;17.60;94.50;;;;;;6697325;88;20220;-80
2021/05/19 15:42:34;;;;;;;1.87;0.70;;;18.00;93.70;;;;;;6691038;88;20190;-78
2021/05/19 15:52:36;;;;;;;2.55;0.60;;;17.70;94.80;;;;;;6690556;88;20640;-78
2021/05/19 16:02:36;;;;;;;2.85;0.70;;;16.90;93.40;;;;;;6692296;88;20186;-77
2021/05/19 16:12:37;;;;;;;2.15;0.80;;;16.60;96.40;;;;;;6699614;88;20210;-76
2021/05/19 16:22:38;;;;;;;2.03;0.90;;;17.30;95.00;;;;;;6702957;88;20917;-76
2021/05/19 16:34:04;;;;;;;3.00;1.00;;;15.80;98.20;;;;;;6703608;88;20194;-78
2021/05/19 16:43:37;;;;;;;3.58;1.10;;;15.70;99.00;;;;;;6696257;88;20186;-76
2021/05/19 16:53:37;;;;;;;3.65;1.50;;;15.50;99.90;;;;;;6691647;88;20205;-80
2021/05/19 17:13:57;;;;;;;5.70;1.87;;;16.80;99.90;;;;;;6696781;88;20668;-78
2021/05/19 17:23:58;;;;;;;4.37;1.80;;;15.40;99.90;;;;;;6687744;88;20227;-77
2021/05/19 17:34:00;;;;;;;5.03;1.70;;;14.80;99.90;;;;;;6693408;88;20605;-78
2021/05/19 17:44:02;;;;;;;3.28;1.77;;;14.60;99.90;;;;;;6691075;88;20648;-77
2021/05/19 17:54:03;;;;;;;4.22;2.05;;;14.30;99.90;;;;;;6690573;88;20267;-76
2021/05/19 18:04:05;;;;;;;5.28;1.83;;;16.10;99.90;;;;;;6695084;88;20642;-76
2021/05/19 18:14:06;;;;;;;5.85;2.20;;;15.60;99.90;;;;;;6699050;88;20696;-76
2021/05/19 18:24:07;;;;;;;5.87;2.22;;;14.50;99.90;;;;;;6693721;88;20206;-76
2021/05/19 18:34:19;;;;;;;5.68;2.12;;;14.10;99.90;;;;;;6694139;88;20199;-78
2021/05/19 18:44:20;;;;;;;3.83;2.17;;;13.70;99.90;;;;;;6685925;88;20200;-75
2021/05/19 18:54:21;;;;;;;3.45;1.75;;;13.70;99.90;;;;;;6688958;88;20667;-76
2021/05/19 19:04:22;;;;;;;4.43;1.77;;;13.60;99.90;;;;;;6692603;88;20214;-77
2021/05/19 19:14:23;;;;;;;6.32;2.10;;;13.40;99.90;;;;;;6699780;88;20497;-76
2021/05/19 19:24:24;;;;;;;7.10;1.95;;;13.30;99.90;;;;;;6684060;88;20183;-76
2021/05/19 19:34:25;;;;;;;5.12;2.10;;;13.00;99.90;;;;;;6684101;88;20611;-77
2021/05/19 19:44:26;;;;;;;5.50;2.20;;;12.90;99.90;;;;;;6687641;88;20186;-75
2021/05/19 19:54:27;;;;;;;4.55;1.70;;;12.90;99.90;;;;;;6683358;88;20683;-76
2021/05/19 20:04:27;;;;;;;3.22;1.40;;;12.80;99.90;;;;;;6683467;88;20204;-76
2021/05/19 20:14:28;;;;;;;3.53;1.17;;;12.80;99.90;;;;;;6684190;88;20194;-76
2021/05/19 20:24:29;;;;;;;3.70;0.97;;;12.50;99.90;;;;;;6682951;88;20190;-76
2021/05/19 20:34:29;;;;;;;1.57;0.60;;;12.50;99.90;;;;;;6686570;88;20505;-76
2021/05/19 20:44:30;;;;;;;2.15;0.70;;;12.50;99.90;;;;;;6687211;88;20578;-80
2021/05/19 20:54:30;;;;;;;1.45;0.70;;;12.30;99.90;;;;;;6686825;88;20246;-78
2021/05/19 21:04:31;;;;;;;2.53;0.82;;;12.20;99.90;;;;;;6688266;88;20183;-76
2021/05/19 21:14:31;;;;;;;2.10;0.90;;;12.10;99.90;;;;;;6697801;88;20207;-76
2021/05/19 21:24:32;;;;;;;2.05;1.12;;;11.90;99.90;;;;;;6690948;88;20203;-76
2021/05/19 21:34:32;;;;;;;2.62;1.10;;;11.80;99.90;;;;;;6685608;88;20283;-76
2021/05/19 21:44:33;;;;;;;1.73;0.88;;;11.70;99.90;;;;;;6685288;88;20728;-76
2021/05/19 21:54:33;;;;;;;2.20;1.00;;;11.70;99.90;;;;;;6685475;88;20330;-78
2021/05/19 22:04:35;;;;;;;3.72;1.17;;;11.50;99.90;;;;;;6685462;88;20225;-75
2021/05/19 22:14:36;;;;;;;3.17;1.30;;;11.30;99.90;;;;;;6686081;88;20185;-76
2021/05/19 22:34:56;;;;;;;3.17;1.40;;;11.10;99.90;;;;;;6669667;89;20170;-76
2021/05/19 22:44:56;;;;;;;1.90;1.15;;;11.00;99.90;;;;;;6671095;89;20197;-76
2021/05/19 22:54:57;;;;;;;2.57;1.40;;;10.90;99.90;;;;;;6684000;88;20289;-76
2021/05/19 23:04:57;;;;;;;3.30;1.35;;;11.00;99.90;;;;;;6682484;88;20527;-76
2021/05/19 23:14:58;;;;;;;2.25;1.20;;;10.80;99.90;;;;;;6683777;88;20217;-76
2021/05/19 23:24:59;;;;;;;2.55;1.37;;;10.60;99.90;;;;;;6683941;88;20505;-77
2021/05/19 23:34:59;;;;;;;2.05;1.30;;;10.50;99.90;;;;;;6680930;89;20207;-76
2021/05/19 23:45:00;;;;;;;3.47;1.30;;;10.30;99.90;;;;;;6683963;88;20187;-77
2021/05/19 23:55:01;;;;;;;2.33;1.20;;;10.10;99.90;;;;;;6683353;88;20293;-77
